Flight Track Log - Related Links

Times and Time Zones

All times are in EDT time to prevent confusion due to time zone crossing. See the UPS1122 flight status page for this flight to view local times or setup timezone preferences in your user account.

Time Position Orientation Groundspeed Altitude Reporting Facility
EDT Latitude Longitude Course Direction KTS MPH feet Rate Location/Type
Fri 06:50:01 AM 41.9344 -72.6925 314° West 143 165 1,200  Level Boston Center
Fri 06:50:30 AM 41.9326 -72.7219 272° West 191 220 2,600 2,333 Climbing FlightAware ADS-B (LDSP / SPU)
Fri 06:50:37 AM 41.9319 -72.7264 264° West 162 186 2,600 2,400 Level Boston Center
Fri 06:50:50 AM 41.9331 -72.7453 272° West 187 215 3,400 2,118 Climbing FlightAware ADS-B (LDSP / SPU)
Fri 06:51:11 AM 41.9342 -72.7644 275° West 175 201 3,800 1,875 Climbing Boston Center
Fri 06:51:38 AM 41.9350 -72.7969 272° West 196 226 4,900 3,143 Climbing Boston Center
Fri 06:52:14 AM 41.9622 -72.8406 310° West 249 287 7,100 3,600 Climbing Boston Center
Fri 06:52:38 AM 41.9811 -72.8683 312° West 282 325 8,500 2,754 Climbing Boston Center
Fri 06:53:00 AM 42.0344 -72.8178 323° Northwest  Level FlightAware Approximate
Fri 06:53:15 AM 42.0139 -72.9108 316° Northwest 264 304 9,900  Level Boston Center
Fri 06:53:40 AM 42.0358 -72.9403 315° West 290 334 10,000 98 Climbing Boston Center
Fri 06:54:00 AM 42.0671 -72.8675 304° West  Level FlightAware Approximate
Fri 06:54:16 AM 42.0794 -72.9908 319° Northwest 332 382 10,000  Level Boston Center
Fri 06:54:40 AM 42.1067 -73.0258 316° Northwest 349 402 9,900  Descending Boston Center
Fri 06:55:00 AM 42.1023 -72.9199 314° West  Level FlightAware Approximate
Fri 06:55:15 AM 42.1494 -73.0747 320° Northwest 338 389 10,000  Level Boston Center
Fri 06:56:16 AM 42.2183 -73.1583 318° Northwest 337 388 10,000 49 Level Boston Center
Fri 06:57:17 AM 42.2936 -73.2481 319° Northwest 336 387 10,100 49 Climbing Boston Center
Fri 06:58:18 AM 42.3633 -73.3269 320° Northwest 337 388 10,100 -48 Level Boston Center
Fri 06:59:21 AM 42.4581 -73.3589 346° North 323 372 10,000 -528 Descending Boston Center
Fri 07:00:23 AM 42.5325 -73.4033 336° Northwest 296 341 9,000 -1,082 Descending Boston Center
Fri 07:01:23 AM 42.6050 -73.4483 335° Northwest 292 336 7,800 -1,200 Descending Boston Center
Fri 07:02:23 AM 42.6747 -73.4922 335° Northwest 282 325 6,600 -1,525 Descending Boston Center
Fri 07:03:25 AM 42.7458 -73.5372 335° Northwest 266 306 4,700 -1,707 Descending Boston Center
Fri 07:04:26 AM 42.8075 -73.5775 334° Northwest 253 291 3,100 -843 Descending Boston Center
Fri 07:05:26 AM 42.8667 -73.6214 331° Northwest 245 282 3,000 -49 Descending Boston Center
Fri 07:06:28 AM 42.9189 -73.6611 331° Northwest 220 253 3,000 -435 Level Boston Center
Fri 07:07:30 AM 42.9317 -73.7369 283° West 193 222 2,100 -488 Descending Boston Center
Fri 07:08:31 AM 42.9256 -73.8036 263° West 190 219 2,000 -50 Descending Boston Center
Fri 07:09:31 AM 42.8767 -73.8108 186° South 177 204 2,000 -99 Level Boston Center
Fri 07:10:32 AM 42.8350 -73.8083 177° South 155 178 1,800 -390 Descending Boston Center
Fri 07:11:34 AM 42.8044 -73.8072 178° South 105 121 1,200 -545 Descending Boston Center
Fri 07:12:33 AM 42.7781 -73.8058 178° South 99 114 700 -446 Descending Boston Center
Fri 07:13:35 AM 42.7486 -73.8039 177° South 99 114 300 -387 Descending Boston Center

Login

Don't have an account? Register now (free) for customized features, flight alerts, and more!